sensor_id;sensor_type;location;lat;lon;timestamp;pressure;altitude;pressure_sealevel;temperature;humidity
32492;BME280;20605;49.742;18.802;2023-03-31T00:02:00;97105.39;;;9.23;100.00
32492;BME280;20605;49.742;18.802;2023-03-31T00:04:27;97106.35;;;9.26;100.00
32492;BME280;20605;49.742;18.802;2023-03-31T00:06:56;97109.58;;;9.27;100.00
32492;BME280;20605;49.742;18.802;2023-03-31T00:09:22;97111.74;;;9.29;100.00
32492;BME280;20605;49.742;18.802;2023-03-31T00:11:48;97109.72;;;9.33;100.00
32492;BME280;20605;49.742;18.802;2023-03-31T00:14:15;97116.55;;;9.35;100.00
32492;BME280;20605;49.742;18.802;2023-03-31T00:16:43;97118.92;;;9.36;100.00
32492;BME280;20605;49.742;18.802;2023-03-31T00:19:10;97117.16;;;9.37;100.00
32492;BME280;20605;49.742;18.802;2023-03-31T00:21:44;97106.96;;;9.37;100.00
32492;BME280;20605;49.742;18.802;2023-03-31T00:24:12;97108.81;;;9.34;100.00
32492;BME280;20605;49.742;18.802;2023-03-31T00:26:38;97109.23;;;9.32;100.00
32492;BME280;20605;49.742;18.802;2023-03-31T00:29:06;97104.08;;;9.31;100.00
32492;BME280;20605;49.742;18.802;2023-03-31T00:31:32;97105.83;;;9.30;100.00
32492;BME280;20605;49.742;18.802;2023-03-31T00:33:58;97108.59;;;9.30;100.00
32492;BME280;20605;49.742;18.802;2023-03-31T00:36:26;97106.80;;;9.28;100.00
32492;BME280;20605;49.742;18.802;2023-03-31T00:38:58;97111.98;;;9.24;100.00
32492;BME280;20605;49.742;18.802;2023-03-31T00:41:28;97106.30;;;9.17;100.00
32492;BME280;20605;49.742;18.802;2023-03-31T00:44:11;97104.19;;;9.10;100.00
32492;BME280;20605;49.742;18.802;2023-03-31T00:49:13;97106.11;;;8.95;100.00
32492;BME280;20605;49.742;18.802;2023-03-31T00:51:41;97105.23;;;8.91;100.00
32492;BME280;20605;49.742;18.802;2023-03-31T00:54:10;97103.03;;;8.85;100.00
32492;BME280;20605;49.742;18.802;2023-03-31T00:56:40;97101.90;;;8.77;100.00
32492;BME280;20605;49.742;18.802;2023-03-31T00:59:10;97104.64;;;8.69;100.00
32492;BME280;20605;49.742;18.802;2023-03-31T01:01:38;97101.23;;;8.62;100.00
32492;BME280;20605;49.742;18.802;2023-03-31T01:04:07;97101.27;;;8.56;100.00
32492;BME280;20605;49.742;18.802;2023-03-31T01:06:37;97098.68;;;8.51;100.00
32492;BME280;20605;49.742;18.802;2023-03-31T01:09:15;97098.13;;;8.47;100.00
32492;BME280;20605;49.742;18.802;2023-03-31T01:11:43;97096.88;;;8.43;100.00
32492;BME280;20605;49.742;18.802;2023-03-31T01:14:10;97098.59;;;8.39;100.00
32492;BME280;20605;49.742;18.802;2023-03-31T01:16:36;97104.77;;;8.35;100.00
32492;BME280;20605;49.742;18.802;2023-03-31T01:19:12;97103.55;;;8.29;100.00
32492;BME280;20605;49.742;18.802;2023-03-31T01:24:52;97105.61;;;8.25;100.00
32492;BME280;20605;49.742;18.802;2023-03-31T01:28:06;97106.71;;;8.23;100.00
32492;BME280;20605;49.742;18.802;2023-03-31T01:45:03;97114.02;;;8.38;100.00
32492;BME280;20605;49.742;18.802;2023-03-31T01:47:36;97112.54;;;8.41;100.00
32492;BME280;20605;49.742;18.802;2023-03-31T01:53:02;97115.83;;;8.45;100.00
32492;BME280;20605;49.742;18.802;2023-03-31T01:55:39;97115.92;;;8.48;100.00
32492;BME280;20605;49.742;18.802;2023-03-31T01:58:20;97111.52;;;8.50;100.00
32492;BME280;20605;49.742;18.802;2023-03-31T02:04:09;97105.22;;;8.57;100.00
32492;BME280;20605;49.742;18.802;2023-03-31T02:06:42;97102.86;;;8.61;100.00
32492;BME280;20605;49.742;18.802;2023-03-31T02:09:22;97099.15;;;8.63;100.00
32492;BME280;20605;49.742;18.802;2023-03-31T02:11:50;97098.96;;;8.63;100.00
32492;BME280;20605;49.742;18.802;2023-03-31T02:14:22;97099.50;;;8.62;100.00
32492;BME280;20605;49.742;18.802;2023-03-31T02:16:53;97095.41;;;8.61;100.00
32492;BME280;20605;49.742;18.802;2023-03-31T02:19:38;97093.69;;;8.60;100.00
32492;BME280;20605;49.742;18.802;2023-03-31T02:22:07;97093.10;;;8.62;100.00
32492;BME280;20605;49.742;18.802;2023-03-31T02:24:39;97089.85;;;8.61;100.00
32492;BME280;20605;49.742;18.802;2023-03-31T02:29:31;97079.95;;;8.62;100.00
32492;BME280;20605;49.742;18.802;2023-03-31T02:34:45;97071.90;;;8.60;100.00
32492;BME280;20605;49.742;18.802;2023-03-31T02:37:12;97078.98;;;8.61;100.00
32492;BME280;20605;49.742;18.802;2023-03-31T02:39:40;97078.66;;;8.60;100.00
32492;BME280;20605;49.742;18.802;2023-03-31T02:42:12;97077.70;;;8.58;100.00
32492;BME280;20605;49.742;18.802;2023-03-31T02:44:38;97072.83;;;8.58;100.00
32492;BME280;20605;49.742;18.802;2023-03-31T02:47:11;97074.09;;;8.57;100.00
32492;BME280;20605;49.742;18.802;2023-03-31T02:49:43;97080.45;;;8.53;100.00
32492;BME280;20605;49.742;18.802;2023-03-31T03:12:05;97062.08;;;8.39;100.00
32492;BME280;20605;49.742;18.802;2023-03-31T03:16:56;97056.02;;;8.39;100.00
32492;BME280;20605;49.742;18.802;2023-03-31T03:19:28;97055.64;;;8.40;100.00
32492;BME280;20605;49.742;18.802;2023-03-31T03:21:54;97046.66;;;8.40;100.00
32492;BME280;20605;49.742;18.802;2023-03-31T03:24:20;97042.83;;;8.40;100.00
32492;BME280;20605;49.742;18.802;2023-03-31T03:26:47;97042.43;;;8.42;100.00
32492;BME280;20605;49.742;18.802;2023-03-31T03:29:13;97049.72;;;8.41;100.00
32492;BME280;20605;49.742;18.802;2023-03-31T03:31:40;97048.89;;;8.40;100.00
32492;BME280;20605;49.742;18.802;2023-03-31T03:34:05;97042.40;;;8.38;100.00
32492;BME280;20605;49.742;18.802;2023-03-31T03:36:32;97041.32;;;8.29;100.00
32492;BME280;20605;49.742;18.802;2023-03-31T03:38:57;97036.94;;;8.20;100.00
32492;BME280;20605;49.742;18.802;2023-03-31T03:41:23;97033.58;;;8.12;100.00
32492;BME280;20605;49.742;18.802;2023-03-31T03:43:49;97036.42;;;8.05;100.00
32492;BME280;20605;49.742;18.802;2023-03-31T03:46:15;97040.16;;;7.97;100.00
32492;BME280;20605;49.742;18.802;2023-03-31T03:48:40;97036.84;;;7.93;100.00
32492;BME280;20605;49.742;18.802;2023-03-31T03:51:06;97034.17;;;7.90;100.00
32492;BME280;20605;49.742;18.802;2023-03-31T03:53:32;97027.37;;;7.86;100.00
32492;BME280;20605;49.742;18.802;2023-03-31T03:55:57;97019.18;;;7.83;100.00
32492;BME280;20605;49.742;18.802;2023-03-31T03:58:23;97014.09;;;7.80;100.00
32492;BME280;20605;49.742;18.802;2023-03-31T04:00:49;97008.09;;;7.79;100.00
32492;BME280;20605;49.742;18.802;2023-03-31T04:03:15;97001.39;;;7.78;100.00
32492;BME280;20605;49.742;18.802;2023-03-31T04:05:41;97000.70;;;7.73;100.00
32492;BME280;20605;49.742;18.802;2023-03-31T04:08:07;97000.50;;;7.69;100.00
32492;BME280;20605;49.742;18.802;2023-03-31T04:10:34;97002.90;;;7.64;100.00
32492;BME280;20605;49.742;18.802;2023-03-31T04:13:04;97000.99;;;7.59;100.00
32492;BME280;20605;49.742;18.802;2023-03-31T04:15:31;97004.20;;;7.56;100.00
32492;BME280;20605;49.742;18.802;2023-03-31T04:17:56;97003.58;;;7.54;100.00
32492;BME280;20605;49.742;18.802;2023-03-31T04:20:22;97005.43;;;7.55;100.00
32492;BME280;20605;49.742;18.802;2023-03-31T04:22:52;97008.52;;;7.56;100.00
32492;BME280;20605;49.742;18.802;2023-03-31T04:25:19;97005.47;;;7.55;100.00
32492;BME280;20605;49.742;18.802;2023-03-31T04:27:49;97004.96;;;7.54;100.00
32492;BME280;20605;49.742;18.802;2023-03-31T04:30:24;97004.78;;;7.54;100.00
32492;BME280;20605;49.742;18.802;2023-03-31T04:32:58;97003.79;;;7.53;100.00
32492;BME280;20605;49.742;18.802;2023-03-31T04:35:26;97003.45;;;7.52;100.00
32492;BME280;20605;49.742;18.802;2023-03-31T04:37:53;97006.75;;;7.52;100.00
32492;BME280;20605;49.742;18.802;2023-03-31T04:40:25;97009.54;;;7.51;100.00
32492;BME280;20605;49.742;18.802;2023-03-31T04:42:50;97003.77;;;7.48;100.00
32492;BME280;20605;49.742;18.802;2023-03-31T04:45:16;97008.46;;;7.47;100.00
32492;BME280;20605;49.742;18.802;2023-03-31T04:47:42;97006.52;;;7.43;100.00
32492;BME280;20605;49.742;18.802;2023-03-31T04:50:09;97002.55;;;7.38;100.00
32492;BME280;20605;49.742;18.802;2023-03-31T04:52:36;96997.02;;;7.32;100.00
32492;BME280;20605;49.742;18.802;2023-03-31T04:55:02;96993.16;;;7.29;100.00
32492;BME280;20605;49.742;18.802;2023-03-31T04:57:28;96993.38;;;7.28;100.00
32492;BME280;20605;49.742;18.802;2023-03-31T04:59:55;96992.81;;;7.29;100.00
32492;BME280;20605;49.742;18.802;2023-03-31T05:02:21;96990.98;;;7.32;100.00
32492;BME280;20605;49.742;18.802;2023-03-31T05:04:49;96991.20;;;7.36;100.00
32492;BME280;20605;49.742;18.802;2023-03-31T05:07:17;96992.12;;;7.40;100.00
32492;BME280;20605;49.742;18.802;2023-03-31T05:09:43;96989.91;;;7.44;100.00
32492;BME280;20605;49.742;18.802;2023-03-31T05:12:10;96989.38;;;7.44;100.00
32492;BME280;20605;49.742;18.802;2023-03-31T05:14:36;96984.84;;;7.46;100.00
32492;BME280;20605;49.742;18.802;2023-03-31T05:17:02;96982.42;;;7.46;100.00
32492;BME280;20605;49.742;18.802;2023-03-31T05:19:27;96980.46;;;7.48;100.00
32492;BME280;20605;49.742;18.802;2023-03-31T05:21:53;96978.92;;;7.53;100.00
32492;BME280;20605;49.742;18.802;2023-03-31T05:24:19;96970.74;;;7.60;100.00
32492;BME280;20605;49.742;18.802;2023-03-31T05:26:45;96965.88;;;7.71;100.00
32492;BME280;20605;49.742;18.802;2023-03-31T05:29:18;96961.23;;;7.94;100.00
32492;BME280;20605;49.742;18.802;2023-03-31T05:31:44;96960.52;;;8.53;100.00
32492;BME280;20605;49.742;18.802;2023-03-31T05:34:10;96957.21;;;9.42;100.00
32492;BME280;20605;49.742;18.802;2023-03-31T05:36:36;96955.45;;;10.13;100.00
32492;BME280;20605;49.742;18.802;2023-03-31T05:39:03;96951.43;;;10.68;100.00
32492;BME280;20605;49.742;18.802;2023-03-31T05:41:29;96949.64;;;11.43;100.00
32492;BME280;20605;49.742;18.802;2023-03-31T05:43:55;96941.27;;;11.95;100.00
32492;BME280;20605;49.742;18.802;2023-03-31T05:46:20;96941.09;;;12.46;100.00
32492;BME280;20605;49.742;18.802;2023-03-31T05:48:46;96941.76;;;13.04;100.00
32492;BME280;20605;49.742;18.802;2023-03-31T05:51:12;96944.60;;;13.25;100.00
32492;BME280;20605;49.742;18.802;2023-03-31T05:53:38;96941.72;;;13.14;100.00
32492;BME280;20605;49.742;18.802;2023-03-31T05:56:04;96944.87;;;13.39;100.00
32492;BME280;20605;49.742;18.802;2023-03-31T05:58:36;96946.46;;;13.96;100.00
32492;BME280;20605;49.742;18.802;2023-03-31T06:01:14;96952.05;;;14.93;100.00
32492;BME280;20605;49.742;18.802;2023-03-31T06:03:44;96947.41;;;16.33;100.00
32492;BME280;20605;49.742;18.802;2023-03-31T06:06:11;96952.26;;;17.28;100.00
32492;BME280;20605;49.742;18.802;2023-03-31T06:08:43;96948.95;;;17.81;100.00
32492;BME280;20605;49.742;18.802;2023-03-31T06:11:12;96940.48;;;17.89;100.00
32492;BME280;20605;49.742;18.802;2023-03-31T06:13:39;96941.42;;;18.32;99.53
32492;BME280;20605;49.742;18.802;2023-03-31T06:16:06;96937.30;;;18.63;97.74
32492;BME280;20605;49.742;18.802;2023-03-31T06:18:34;96935.32;;;19.10;99.98
32492;BME280;20605;49.742;18.802;2023-03-31T06:21:00;96935.46;;;19.94;98.47
32492;BME280;20605;49.742;18.802;2023-03-31T06:23:26;96937.19;;;20.76;97.44
32492;BME280;20605;49.742;18.802;2023-03-31T06:25:52;96940.12;;;21.49;96.24
32492;BME280;20605;49.742;18.802;2023-03-31T06:28:19;96937.29;;;21.57;95.45
32492;BME280;20605;49.742;18.802;2023-03-31T06:30:45;96931.92;;;21.13;91.85
32492;BME280;20605;49.742;18.802;2023-03-31T06:33:11;96930.15;;;20.22;90.04
32492;BME280;20605;49.742;18.802;2023-03-31T06:35:39;96926.32;;;20.17;92.18
32492;BME280;20605;49.742;18.802;2023-03-31T06:38:06;96921.53;;;20.99;90.87
32492;BME280;20605;49.742;18.802;2023-03-31T06:40:32;96919.26;;;21.51;89.30
32492;BME280;20605;49.742;18.802;2023-03-31T06:42:59;96916.10;;;20.91;85.61
32492;BME280;20605;49.742;18.802;2023-03-31T06:45:24;96918.75;;;20.06;86.17
32492;BME280;20605;49.742;18.802;2023-03-31T06:47:50;96924.78;;;19.25;86.37
32492;BME280;20605;49.742;18.802;2023-03-31T06:50:16;96922.63;;;18.47;87.63
32492;BME280;20605;49.742;18.802;2023-03-31T06:52:42;96921.85;;;17.91;88.53
32492;BME280;20605;49.742;18.802;2023-03-31T06:55:09;96922.94;;;17.46;88.96
32492;BME280;20605;49.742;18.802;2023-03-31T06:57:37;96920.34;;;17.07;89.13
32492;BME280;20605;49.742;18.802;2023-03-31T07:00:03;96920.16;;;17.31;89.18
32492;BME280;20605;49.742;18.802;2023-03-31T07:02:30;96922.35;;;17.59;89.07
32492;BME280;20605;49.742;18.802;2023-03-31T07:04:56;96922.98;;;18.34;87.21
32492;BME280;20605;49.742;18.802;2023-03-31T07:07:21;96921.54;;;18.91;87.45
32492;BME280;20605;49.742;18.802;2023-03-31T07:09:47;96918.64;;;18.47;84.30
32492;BME280;20605;49.742;18.802;2023-03-31T07:12:13;96922.48;;;17.64;85.98
32492;BME280;20605;49.742;18.802;2023-03-31T07:14:38;96916.95;;;17.15;87.02
32492;BME280;20605;49.742;18.802;2023-03-31T07:17:04;96911.95;;;17.66;87.51
32492;BME280;20605;49.742;18.802;2023-03-31T07:19:30;96913.46;;;18.50;86.41
32492;BME280;20605;49.742;18.802;2023-03-31T07:21:55;96913.73;;;18.46;83.60
32492;BME280;20605;49.742;18.802;2023-03-31T07:24:21;96910.78;;;18.78;85.29
32492;BME280;20605;49.742;18.802;2023-03-31T07:26:50;96909.88;;;19.54;83.12
32492;BME280;20605;49.742;18.802;2023-03-31T07:29:16;96903.59;;;20.11;81.25
32492;BME280;20605;49.742;18.802;2023-03-31T07:31:42;96897.64;;;21.04;83.00
32492;BME280;20605;49.742;18.802;2023-03-31T07:34:10;96893.86;;;22.59;81.99
32492;BME280;20605;49.742;18.802;2023-03-31T07:36:39;96891.98;;;23.17;74.11
32492;BME280;20605;49.742;18.802;2023-03-31T07:39:05;96896.95;;;22.62;73.23
32492;BME280;20605;49.742;18.802;2023-03-31T07:41:31;96884.83;;;22.37;72.88
32492;BME280;20605;49.742;18.802;2023-03-31T07:43:57;96887.46;;;22.27;73.90
32492;BME280;20605;49.742;18.802;2023-03-31T07:46:30;96882.58;;;21.81;73.55
32492;BME280;20605;49.742;18.802;2023-03-31T07:49:07;96881.70;;;21.30;73.27
32492;BME280;20605;49.742;18.802;2023-03-31T07:51:43;96875.45;;;21.09;74.28
32492;BME280;20605;49.742;18.802;2023-03-31T07:54:08;96876.29;;;21.06;75.28
32492;BME280;20605;49.742;18.802;2023-03-31T07:56:34;96868.63;;;22.17;76.23
32492;BME280;20605;49.742;18.802;2023-03-31T07:59:00;96867.78;;;23.36;73.80
32492;BME280;20605;49.742;18.802;2023-03-31T08:01:25;96862.49;;;23.88;71.08
32492;BME280;20605;49.742;18.802;2023-03-31T08:03:53;96860.73;;;23.95;67.98
32492;BME280;20605;49.742;18.802;2023-03-31T08:06:21;96851.60;;;22.99;67.97
32492;BME280;20605;49.742;18.802;2023-03-31T08:08:48;96844.98;;;21.82;68.41
32492;BME280;20605;49.742;18.802;2023-03-31T08:11:15;96839.52;;;20.99;71.17
32492;BME280;20605;49.742;18.802;2023-03-31T08:13:41;96830.11;;;20.35;71.64
32492;BME280;20605;49.742;18.802;2023-03-31T08:16:06;96821.73;;;20.10;73.65
32492;BME280;20605;49.742;18.802;2023-03-31T08:18:32;96807.33;;;20.21;75.16
32492;BME280;20605;49.742;18.802;2023-03-31T08:20:58;96802.79;;;20.31;74.70
32492;BME280;20605;49.742;18.802;2023-03-31T08:23:24;96803.77;;;20.09;73.74
32492;BME280;20605;49.742;18.802;2023-03-31T08:25:49;96802.87;;;19.83;75.60
32492;BME280;20605;49.742;18.802;2023-03-31T08:28:15;96799.16;;;19.87;75.03
32492;BME280;20605;49.742;18.802;2023-03-31T08:30:41;96796.34;;;19.64;73.88
32492;BME280;20605;49.742;18.802;2023-03-31T08:33:07;96796.72;;;18.63;74.41
32492;BME280;20605;49.742;18.802;2023-03-31T08:35:34;96791.06;;;17.98;77.12
32492;BME280;20605;49.742;18.802;2023-03-31T08:38:00;96779.20;;;17.92;77.83
32492;BME280;20605;49.742;18.802;2023-03-31T08:40:27;96783.09;;;17.57;78.68
32492;BME280;20605;49.742;18.802;2023-03-31T08:43:25;96785.75;;;17.68;80.44
32492;BME280;20605;49.742;18.802;2023-03-31T08:45:53;96783.80;;;18.67;78.79
32492;BME280;20605;49.742;18.802;2023-03-31T08:48:29;96777.31;;;19.33;78.95
32492;BME280;20605;49.742;18.802;2023-03-31T08:53:46;96776.67;;;21.18;73.35
32492;BME280;20605;49.742;18.802;2023-03-31T08:56:16;96778.90;;;21.37;73.04
32492;BME280;20605;49.742;18.802;2023-03-31T08:58:43;96774.13;;;21.35;71.44
32492;BME280;20605;49.742;18.802;2023-03-31T09:01:41;96768.13;;;20.65;73.34
32492;BME280;20605;49.742;18.802;2023-03-31T09:10:02;96741.52;;;20.32;72.98
32492;BME280;20605;49.742;18.802;2023-03-31T09:15:31;96740.53;;;19.33;76.81
32492;BME280;20605;49.742;18.802;2023-03-31T09:18:28;96734.65;;;19.46;76.50
32492;BME280;20605;49.742;18.802;2023-03-31T09:26:45;96723.67;;;21.39;74.61
32492;BME280;20605;49.742;18.802;2023-03-31T09:32:12;96718.82;;;21.92;71.27
32492;BME280;20605;49.742;18.802;2023-03-31T09:34:38;96712.45;;;21.94;70.85
32492;BME280;20605;49.742;18.802;2023-03-31T09:37:04;96713.23;;;22.00;69.73
32492;BME280;20605;49.742;18.802;2023-03-31T09:39:30;96712.02;;;21.21;70.85
32492;BME280;20605;49.742;18.802;2023-03-31T09:41:56;96710.72;;;20.29;73.09
32492;BME280;20605;49.742;18.802;2023-03-31T09:46:48;96706.95;;;20.24;75.05
32492;BME280;20605;49.742;18.802;2023-03-31T09:49:17;96707.30;;;20.32;74.08
32492;BME280;20605;49.742;18.802;2023-03-31T09:51:47;96702.10;;;19.58;74.49
32492;BME280;20605;49.742;18.802;2023-03-31T09:54:34;96705.98;;;18.81;76.78
32492;BME280;20605;49.742;18.802;2023-03-31T09:57:02;96689.14;;;18.46;77.56
32492;BME280;20605;49.742;18.802;2023-03-31T09:59:36;96690.91;;;18.33;78.16
32492;BME280;20605;49.742;18.802;2023-03-31T10:04:45;96691.52;;;18.25;78.66
32492;BME280;20605;49.742;18.802;2023-03-31T10:07:12;96692.43;;;18.22;78.81
32492;BME280;20605;49.742;18.802;2023-03-31T10:09:38;96686.20;;;18.04;78.42
32492;BME280;20605;49.742;18.802;2023-03-31T10:12:18;96680.84;;;17.74;78.71
32492;BME280;20605;49.742;18.802;2023-03-31T10:14:49;96684.08;;;17.48;79.63
32492;BME280;20605;49.742;18.802;2023-03-31T10:17:22;96675.77;;;17.40;80.41
32492;BME280;20605;49.742;18.802;2023-03-31T10:20:04;96674.13;;;17.49;80.59
32492;BME280;20605;49.742;18.802;2023-03-31T10:22:32;96670.98;;;17.45;81.25
32492;BME280;20605;49.742;18.802;2023-03-31T10:25:15;96670.68;;;17.31;80.67
32492;BME280;20605;49.742;18.802;2023-03-31T10:27:44;96667.67;;;17.10;81.35
32492;BME280;20605;49.742;18.802;2023-03-31T10:30:19;96669.56;;;16.88;81.62
32492;BME280;20605;49.742;18.802;2023-03-31T10:32:45;96672.42;;;16.61;82.88
32492;BME280;20605;49.742;18.802;2023-03-31T10:35:20;96670.65;;;16.47;83.21
32492;BME280;20605;49.742;18.802;2023-03-31T10:37:48;96667.02;;;16.27;83.34
32492;BME280;20605;49.742;18.802;2023-03-31T10:40:26;96663.78;;;16.07;83.83
32492;BME280;20605;49.742;18.802;2023-03-31T10:45:46;96650.48;;;15.97;85.54
32492;BME280;20605;49.742;18.802;2023-03-31T10:48:36;96644.76;;;16.04;86.05
32492;BME280;20605;49.742;18.802;2023-03-31T10:51:10;96639.13;;;15.89;86.30
32492;BME280;20605;49.742;18.802;2023-03-31T10:53:59;96640.23;;;15.76;86.93
32492;BME280;20605;49.742;18.802;2023-03-31T10:56:41;96635.80;;;15.75;87.16
32492;BME280;20605;49.742;18.802;2023-03-31T11:05:44;96626.09;;;15.59;88.46
32492;BME280;20605;49.742;18.802;2023-03-31T11:24:50;96598.05;;;16.94;84.25
32492;BME280;20605;49.742;18.802;2023-03-31T11:27:46;96597.55;;;17.10;84.69
32492;BME280;20605;49.742;18.802;2023-03-31T11:41:35;96569.91;;;17.53;83.17
32492;BME280;20605;49.742;18.802;2023-03-31T11:44:04;96563.45;;;17.91;80.47
32492;BME280;20605;49.742;18.802;2023-03-31T11:49:08;96549.21;;;18.10;79.63
32492;BME280;20605;49.742;18.802;2023-03-31T11:56:52;96543.06;;;17.93;77.58
32492;BME280;20605;49.742;18.802;2023-03-31T11:59:21;96546.88;;;17.91;77.59
32492;BME280;20605;49.742;18.802;2023-03-31T12:02:28;96540.70;;;17.92;78.04
32492;BME280;20605;49.742;18.802;2023-03-31T12:05:02;96537.78;;;17.98;77.65
32492;BME280;20605;49.742;18.802;2023-03-31T12:07:53;96532.19;;;17.93;77.52
32492;BME280;20605;49.742;18.802;2023-03-31T12:10:34;96529.17;;;17.67;76.09
32492;BME280;20605;49.742;18.802;2023-03-31T12:15:57;96529.90;;;17.31;77.69
32492;BME280;20605;49.742;18.802;2023-03-31T12:18:29;96529.43;;;17.13;77.22
32492;BME280;20605;49.742;18.802;2023-03-31T12:21:02;96531.99;;;16.89;77.37
32492;BME280;20605;49.742;18.802;2023-03-31T12:23:34;96526.34;;;16.69;78.13
32492;BME280;20605;49.742;18.802;2023-03-31T12:28:48;96520.52;;;16.28;78.68
32492;BME280;20605;49.742;18.802;2023-03-31T12:31:21;96518.39;;;16.12;79.26
32492;BME280;20605;49.742;18.802;2023-03-31T12:34:02;96510.95;;;15.99;79.29
32492;BME280;20605;49.742;18.802;2023-03-31T12:37:28;96512.36;;;15.82;79.74
32492;BME280;20605;49.742;18.802;2023-03-31T12:45:59;96504.73;;;15.48;79.73
32492;BME280;20605;49.742;18.802;2023-03-31T12:59:45;96495.75;;;14.94;82.17
32492;BME280;20605;49.742;18.802;2023-03-31T13:04:42;96483.89;;;14.49;83.57
32492;BME280;20605;49.742;18.802;2023-03-31T13:09:56;96472.39;;;14.20;84.74
32492;BME280;20605;49.742;18.802;2023-03-31T13:12:24;96471.50;;;14.15;85.16
32492;BME280;20605;49.742;18.802;2023-03-31T13:14:54;96475.90;;;14.12;85.64
32492;BME280;20605;49.742;18.802;2023-03-31T13:17:31;96468.63;;;14.09;86.01
32492;BME280;20605;49.742;18.802;2023-03-31T13:20:23;96471.73;;;14.04;87.17
32492;BME280;20605;49.742;18.802;2023-03-31T13:23:00;96469.23;;;13.84;89.53
32492;BME280;20605;49.742;18.802;2023-03-31T13:27:57;96458.91;;;13.47;92.64
32492;BME280;20605;49.742;18.802;2023-03-31T13:33:43;96427.68;;;13.34;94.29
32492;BME280;20605;49.742;18.802;2023-03-31T13:36:41;96420.33;;;13.26;94.99
32492;BME280;20605;49.742;18.802;2023-03-31T14:01:35;96360.72;;;14.59;90.46
32492;BME280;20605;49.742;18.802;2023-03-31T14:09:32;96348.88;;;14.52;89.97
32492;BME280;20605;49.742;18.802;2023-03-31T14:12:01;96334.77;;;14.48;90.11
32492;BME280;20605;49.742;18.802;2023-03-31T14:14:43;96329.13;;;14.44;89.89
32492;BME280;20605;49.742;18.802;2023-03-31T14:17:10;96330.47;;;14.45;90.26
32492;BME280;20605;49.742;18.802;2023-03-31T14:25:20;96314.72;;;14.55;90.60
32492;BME280;20605;49.742;18.802;2023-03-31T14:27:59;96309.14;;;14.57;90.78
32492;BME280;20605;49.742;18.802;2023-03-31T14:30:49;96302.80;;;14.51;90.75
32492;BME280;20605;49.742;18.802;2023-03-31T14:33:33;96299.59;;;14.42;90.44
32492;BME280;20605;49.742;18.802;2023-03-31T14:38:40;96294.34;;;14.30;90.98
32492;BME280;20605;49.742;18.802;2023-03-31T14:41:17;96297.83;;;14.22;91.40
32492;BME280;20605;49.742;18.802;2023-03-31T14:44:02;96283.83;;;14.16;91.57
32492;BME280;20605;49.742;18.802;2023-03-31T14:46:30;96283.28;;;14.09;91.93
32492;BME280;20605;49.742;18.802;2023-03-31T14:48:57;96278.52;;;14.07;92.21
32492;BME280;20605;49.742;18.802;2023-03-31T14:51:29;96278.95;;;14.06;92.24
32492;BME280;20605;49.742;18.802;2023-03-31T14:53:59;96276.00;;;14.05;92.08
32492;BME280;20605;49.742;18.802;2023-03-31T14:56:53;96274.47;;;14.04;92.57
32492;BME280;20605;49.742;18.802;2023-03-31T14:59:22;96270.14;;;14.04;92.99
32492;BME280;20605;49.742;18.802;2023-03-31T15:01:49;96257.94;;;14.04;92.86
32492;BME280;20605;49.742;18.802;2023-03-31T15:04:19;96259.89;;;14.06;93.08
32492;BME280;20605;49.742;18.802;2023-03-31T15:06:49;96253.75;;;14.16;93.12
32492;BME280;20605;49.742;18.802;2023-03-31T15:09:28;96258.65;;;14.26;92.81
32492;BME280;20605;49.742;18.802;2023-03-31T15:12:14;96256.20;;;14.26;92.66
32492;BME280;20605;49.742;18.802;2023-03-31T15:14:45;96256.04;;;14.26;92.14
32492;BME280;20605;49.742;18.802;2023-03-31T15:17:24;96252.08;;;14.25;92.06
32492;BME280;20605;49.742;18.802;2023-03-31T15:19:58;96249.16;;;14.20;91.94
32492;BME280;20605;49.742;18.802;2023-03-31T15:22:26;96240.77;;;14.10;91.75
32492;BME280;20605;49.742;18.802;2023-03-31T15:24:53;96243.73;;;14.02;91.79
32492;BME280;20605;49.742;18.802;2023-03-31T15:28:00;96234.41;;;13.98;91.74
32492;BME280;20605;49.742;18.802;2023-03-31T15:30:26;96233.51;;;13.99;92.30
32492;BME280;20605;49.742;18.802;2023-03-31T15:32:53;96228.16;;;14.08;92.20
32492;BME280;20605;49.742;18.802;2023-03-31T15:35:30;96216.64;;;14.23;92.16
32492;BME280;20605;49.742;18.802;2023-03-31T15:38:00;96207.73;;;14.36;91.84
32492;BME280;20605;49.742;18.802;2023-03-31T15:40:35;96197.85;;;14.41;91.52
32492;BME280;20605;49.742;18.802;2023-03-31T15:43:15;96188.44;;;14.41;91.30
32492;BME280;20605;49.742;18.802;2023-03-31T15:45:50;96185.23;;;14.34;91.11
32492;BME280;20605;49.742;18.802;2023-03-31T15:48:20;96172.58;;;14.19;91.22
32492;BME280;20605;49.742;18.802;2023-03-31T15:50:47;96168.11;;;14.01;91.37
32492;BME280;20605;49.742;18.802;2023-03-31T15:53:46;96165.54;;;13.83;91.83
32492;BME280;20605;49.742;18.802;2023-03-31T15:56:44;96164.21;;;13.67;92.54
32492;BME280;20605;49.742;18.802;2023-03-31T15:59:24;96166.48;;;13.55;93.02
32492;BME280;20605;49.742;18.802;2023-03-31T16:01:51;96160.92;;;13.45;93.62
32492;BME280;20605;49.742;18.802;2023-03-31T16:04:17;96165.02;;;13.38;93.80
32492;BME280;20605;49.742;18.802;2023-03-31T16:09:27;96152.45;;;13.28;94.59
32492;BME280;20605;49.742;18.802;2023-03-31T16:12:03;96142.87;;;13.28;94.95
32492;BME280;20605;49.742;18.802;2023-03-31T16:15:28;96138.70;;;13.26;95.45
32492;BME280;20605;49.742;18.802;2023-03-31T16:17:53;96139.90;;;13.19;95.81
32492;BME280;20605;49.742;18.802;2023-03-31T16:22:55;96153.79;;;13.06;96.45
32492;BME280;20605;49.742;18.802;2023-03-31T16:25:26;96149.19;;;13.02;96.55
32492;BME280;20605;49.742;18.802;2023-03-31T16:28:01;96153.87;;;12.97;96.87
32492;BME280;20605;49.742;18.802;2023-03-31T16:30:39;96148.68;;;12.94;97.65